sensor_id;sensor_type;location;lat;lon;timestamp;P1;durP1;ratioP1;P2;durP2;ratioP2
72920;SDS011;61064;51.654;5.476;2022-10-22T00:00:28;10.57;;;2.83;;
72920;SDS011;61064;51.654;5.476;2022-10-22T00:02:54;9.30;;;2.80;;
72920;SDS011;61064;51.654;5.476;2022-10-22T00:05:19;8.07;;;2.93;;
72920;SDS011;61064;51.654;5.476;2022-10-22T00:07:44;9.03;;;2.87;;
72920;SDS011;61064;51.654;5.476;2022-10-22T00:10:10;8.80;;;2.90;;
72920;SDS011;61064;51.654;5.476;2022-10-22T00:12:36;10.10;;;3.10;;
72920;SDS011;61064;51.654;5.476;2022-10-22T00:15:02;11.60;;;3.05;;
72920;SDS011;61064;51.654;5.476;2022-10-22T00:17:29;9.03;;;3.30;;
72920;SDS011;61064;51.654;5.476;2022-10-22T00:19:54;9.13;;;3.30;;
72920;SDS011;61064;51.654;5.476;2022-10-22T00:22:19;7.57;;;2.97;;
72920;SDS011;61064;51.654;5.476;2022-10-22T00:24:45;10.63;;;3.23;;
72920;SDS011;61064;51.654;5.476;2022-10-22T00:27:11;10.40;;;3.20;;
72920;SDS011;61064;51.654;5.476;2022-10-22T00:29:37;9.85;;;3.10;;
72920;SDS011;61064;51.654;5.476;2022-10-22T00:32:03;12.57;;;2.90;;
72920;SDS011;61064;51.654;5.476;2022-10-22T00:34:29;10.25;;;3.47;;
72920;SDS011;61064;51.654;5.476;2022-10-22T00:36:55;9.20;;;3.37;;
72920;SDS011;61064;51.654;5.476;2022-10-22T00:39:21;9.90;;;3.60;;
72920;SDS011;61064;51.654;5.476;2022-10-22T00:41:49;8.73;;;3.20;;
72920;SDS011;61064;51.654;5.476;2022-10-22T00:47:22;8.35;;;3.20;;
72920;SDS011;61064;51.654;5.476;2022-10-22T00:49:49;9.55;;;3.30;;
72920;SDS011;61064;51.654;5.476;2022-10-22T00:52:20;10.20;;;3.38;;
72920;SDS011;61064;51.654;5.476;2022-10-22T00:54:46;13.13;;;3.90;;
72920;SDS011;61064;51.654;5.476;2022-10-22T00:57:13;9.55;;;3.50;;
72920;SDS011;61064;51.654;5.476;2022-10-22T00:59:42;8.68;;;3.20;;
72920;SDS011;61064;51.654;5.476;2022-10-22T01:02:08;8.57;;;3.03;;
72920;SDS011;61064;51.654;5.476;2022-10-22T01:04:33;10.53;;;3.60;;
72920;SDS011;61064;51.654;5.476;2022-10-22T01:07:02;9.10;;;3.22;;
72920;SDS011;61064;51.654;5.476;2022-10-22T01:17:28;8.48;;;3.30;;
72920;SDS011;61064;51.654;5.476;2022-10-22T01:20:09;13.30;;;3.40;;
72920;SDS011;61064;51.654;5.476;2022-10-22T01:22:54;15.25;;;3.40;;
72920;SDS011;61064;51.654;5.476;2022-10-22T01:31:23;9.70;;;4.10;;
72920;SDS011;61064;51.654;5.476;2022-10-22T01:33:52;9.18;;;3.88;;
72920;SDS011;61064;51.654;5.476;2022-10-22T01:36:19;8.85;;;3.90;;
72920;SDS011;61064;51.654;5.476;2022-10-22T01:38:45;9.45;;;3.67;;
72920;SDS011;61064;51.654;5.476;2022-10-22T01:41:13;12.60;;;3.87;;
72920;SDS011;61064;51.654;5.476;2022-10-22T01:43:40;12.32;;;3.85;;
72920;SDS011;61064;51.654;5.476;2022-10-22T01:46:08;11.18;;;4.30;;
72920;SDS011;61064;51.654;5.476;2022-10-22T01:51:26;12.77;;;3.85;;
72920;SDS011;61064;51.654;5.476;2022-10-22T01:53:58;10.70;;;3.97;;
72920;SDS011;61064;51.654;5.476;2022-10-22T01:56:44;11.73;;;3.92;;
72920;SDS011;61064;51.654;5.476;2022-10-22T01:59:39;11.05;;;3.85;;
72920;SDS011;61064;51.654;5.476;2022-10-22T02:02:38;9.85;;;3.42;;
72920;SDS011;61064;51.654;5.476;2022-10-22T02:05:27;11.27;;;3.45;;
72920;SDS011;61064;51.654;5.476;2022-10-22T02:08:02;11.13;;;3.73;;
72920;SDS011;61064;51.654;5.476;2022-10-22T02:10:36;12.63;;;3.75;;
72920;SDS011;61064;51.654;5.476;2022-10-22T02:13:03;11.95;;;3.83;;
72920;SDS011;61064;51.654;5.476;2022-10-22T02:15:34;10.55;;;3.42;;
72920;SDS011;61064;51.654;5.476;2022-10-22T02:18:03;11.73;;;4.00;;
72920;SDS011;61064;51.654;5.476;2022-10-22T02:20:32;11.17;;;3.93;;
72920;SDS011;61064;51.654;5.476;2022-10-22T02:22:59;15.35;;;4.03;;
72920;SDS011;61064;51.654;5.476;2022-10-22T02:25:29;12.15;;;4.00;;
72920;SDS011;61064;51.654;5.476;2022-10-22T02:30:45;13.90;;;4.07;;
72920;SDS011;61064;51.654;5.476;2022-10-22T02:35:52;12.38;;;3.85;;
72920;SDS011;61064;51.654;5.476;2022-10-22T02:38:19;11.88;;;4.03;;
72920;SDS011;61064;51.654;5.476;2022-10-22T02:40:47;11.38;;;3.50;;
72920;SDS011;61064;51.654;5.476;2022-10-22T02:43:14;16.40;;;4.22;;
72920;SDS011;61064;51.654;5.476;2022-10-22T02:45:42;14.73;;;4.20;;
72920;SDS011;61064;51.654;5.476;2022-10-22T02:48:10;11.73;;;3.80;;
72920;SDS011;61064;51.654;5.476;2022-10-22T02:50:35;12.13;;;3.80;;
72920;SDS011;61064;51.654;5.476;2022-10-22T02:53:01;11.50;;;3.67;;
72920;SDS011;61064;51.654;5.476;2022-10-22T02:55:26;11.53;;;3.90;;
72920;SDS011;61064;51.654;5.476;2022-10-22T02:57:52;9.70;;;3.20;;
72920;SDS011;61064;51.654;5.476;2022-10-22T03:00:17;12.60;;;3.90;;
72920;SDS011;61064;51.654;5.476;2022-10-22T03:02:45;10.93;;;3.92;;
72920;SDS011;61064;51.654;5.476;2022-10-22T03:05:10;11.50;;;4.00;;
72920;SDS011;61064;51.654;5.476;2022-10-22T03:07:35;12.33;;;4.07;;
72920;SDS011;61064;51.654;5.476;2022-10-22T03:10:01;11.70;;;3.80;;
72920;SDS011;61064;51.654;5.476;2022-10-22T03:12:29;12.50;;;3.73;;
72920;SDS011;61064;51.654;5.476;2022-10-22T03:14:55;9.80;;;3.70;;
72920;SDS011;61064;51.654;5.476;2022-10-22T03:17:20;10.87;;;3.97;;
72920;SDS011;61064;51.654;5.476;2022-10-22T03:19:46;13.03;;;3.40;;
72920;SDS011;61064;51.654;5.476;2022-10-22T03:22:12;13.90;;;4.13;;
72920;SDS011;61064;51.654;5.476;2022-10-22T03:24:44;11.95;;;3.88;;
72920;SDS011;61064;51.654;5.476;2022-10-22T03:27:13;14.93;;;3.67;;
72920;SDS011;61064;51.654;5.476;2022-10-22T03:29:40;11.65;;;3.88;;
72920;SDS011;61064;51.654;5.476;2022-10-22T03:32:06;11.80;;;4.20;;
72920;SDS011;61064;51.654;5.476;2022-10-22T03:34:32;15.50;;;3.95;;
72920;SDS011;61064;51.654;5.476;2022-10-22T03:37:01;10.80;;;3.67;;
72920;SDS011;61064;51.654;5.476;2022-10-22T03:39:27;13.02;;;3.75;;
72920;SDS011;61064;51.654;5.476;2022-10-22T03:41:55;11.30;;;3.90;;
72920;SDS011;61064;51.654;5.476;2022-10-22T03:44:21;12.33;;;3.80;;
72920;SDS011;61064;51.654;5.476;2022-10-22T03:46:48;11.57;;;3.25;;
72920;SDS011;61064;51.654;5.476;2022-10-22T03:49:13;13.17;;;3.90;;
72920;SDS011;61064;51.654;5.476;2022-10-22T03:51:39;13.75;;;3.70;;
72920;SDS011;61064;51.654;5.476;2022-10-22T03:54:04;9.43;;;3.47;;
72920;SDS011;61064;51.654;5.476;2022-10-22T03:56:36;15.15;;;3.67;;
72920;SDS011;61064;51.654;5.476;2022-10-22T03:59:01;11.43;;;3.60;;
72920;SDS011;61064;51.654;5.476;2022-10-22T04:01:28;10.68;;;3.38;;
72920;SDS011;61064;51.654;5.476;2022-10-22T04:03:54;14.02;;;3.55;;
72920;SDS011;61064;51.654;5.476;2022-10-22T04:06:20;11.70;;;3.57;;
72920;SDS011;61064;51.654;5.476;2022-10-22T04:08:46;10.18;;;3.40;;
72920;SDS011;61064;51.654;5.476;2022-10-22T04:11:12;17.60;;;3.77;;
72920;SDS011;61064;51.654;5.476;2022-10-22T04:13:39;11.80;;;3.42;;
72920;SDS011;61064;51.654;5.476;2022-10-22T04:16:18;13.55;;;3.22;;
72920;SDS011;61064;51.654;5.476;2022-10-22T04:18:45;11.40;;;3.10;;
72920;SDS011;61064;51.654;5.476;2022-10-22T04:21:12;13.70;;;3.40;;
72920;SDS011;61064;51.654;5.476;2022-10-22T04:23:42;11.75;;;3.30;;
72920;SDS011;61064;51.654;5.476;2022-10-22T04:26:12;13.95;;;3.45;;
72920;SDS011;61064;51.654;5.476;2022-10-22T04:28:37;16.75;;;3.13;;
72920;SDS011;61064;51.654;5.476;2022-10-22T04:31:10;12.63;;;3.10;;
72920;SDS011;61064;51.654;5.476;2022-10-22T04:33:37;10.20;;;3.15;;
72920;SDS011;61064;51.654;5.476;2022-10-22T04:36:10;13.63;;;3.20;;
72920;SDS011;61064;51.654;5.476;2022-10-22T04:38:43;12.40;;;2.97;;
72920;SDS011;61064;51.654;5.476;2022-10-22T04:43:40;15.13;;;3.10;;
72920;SDS011;61064;51.654;5.476;2022-10-22T04:46:06;13.70;;;3.10;;
72920;SDS011;61064;51.654;5.476;2022-10-22T04:48:35;12.87;;;2.97;;
72920;SDS011;61064;51.654;5.476;2022-10-22T04:51:01;12.15;;;2.95;;
72920;SDS011;61064;51.654;5.476;2022-10-22T04:53:27;15.50;;;3.10;;
72920;SDS011;61064;51.654;5.476;2022-10-22T04:55:53;14.43;;;3.10;;
72920;SDS011;61064;51.654;5.476;2022-10-22T04:58:18;12.25;;;3.17;;
72920;SDS011;61064;51.654;5.476;2022-10-22T05:00:44;12.53;;;3.13;;
72920;SDS011;61064;51.654;5.476;2022-10-22T05:03:09;15.07;;;3.05;;
72920;SDS011;61064;51.654;5.476;2022-10-22T05:05:35;12.20;;;3.37;;
72920;SDS011;61064;51.654;5.476;2022-10-22T05:08:00;15.13;;;2.90;;
72920;SDS011;61064;51.654;5.476;2022-10-22T05:10:25;14.00;;;2.90;;
72920;SDS011;61064;51.654;5.476;2022-10-22T05:12:52;12.75;;;3.10;;
72920;SDS011;61064;51.654;5.476;2022-10-22T05:15:17;11.23;;;2.80;;
72920;SDS011;61064;51.654;5.476;2022-10-22T05:17:42;18.00;;;3.20;;
72920;SDS011;61064;51.654;5.476;2022-10-22T05:20:08;11.67;;;2.67;;
72920;SDS011;61064;51.654;5.476;2022-10-22T05:22:33;11.73;;;3.15;;
72920;SDS011;61064;51.654;5.476;2022-10-22T05:24:59;14.80;;;3.20;;
72920;SDS011;61064;51.654;5.476;2022-10-22T05:27:24;11.93;;;2.90;;
72920;SDS011;61064;51.654;5.476;2022-10-22T05:29:50;11.13;;;3.17;;
72920;SDS011;61064;51.654;5.476;2022-10-22T05:32:15;13.27;;;3.00;;
72920;SDS011;61064;51.654;5.476;2022-10-22T05:34:41;11.13;;;3.30;;
72920;SDS011;61064;51.654;5.476;2022-10-22T05:37:06;15.30;;;2.83;;
72920;SDS011;61064;51.654;5.476;2022-10-22T05:39:32;13.47;;;3.50;;
72920;SDS011;61064;51.654;5.476;2022-10-22T05:42:00;13.48;;;2.70;;
72920;SDS011;61064;51.654;5.476;2022-10-22T05:44:28;13.33;;;2.87;;
72920;SDS011;61064;51.654;5.476;2022-10-22T05:46:54;9.80;;;2.53;;
72920;SDS011;61064;51.654;5.476;2022-10-22T05:49:19;13.10;;;3.00;;
72920;SDS011;61064;51.654;5.476;2022-10-22T05:51:44;16.10;;;3.00;;
72920;SDS011;61064;51.654;5.476;2022-10-22T05:54:17;13.63;;;2.80;;
72920;SDS011;61064;51.654;5.476;2022-10-22T05:56:44;13.50;;;2.83;;
72920;SDS011;61064;51.654;5.476;2022-10-22T05:59:09;14.63;;;2.75;;
72920;SDS011;61064;51.654;5.476;2022-10-22T06:01:35;14.70;;;2.93;;
72920;SDS011;61064;51.654;5.476;2022-10-22T06:04:03;10.68;;;2.65;;
72920;SDS011;61064;51.654;5.476;2022-10-22T06:06:31;14.75;;;2.42;;
72920;SDS011;61064;51.654;5.476;2022-10-22T06:09:41;12.10;;;2.75;;
72920;SDS011;61064;51.654;5.476;2022-10-22T06:11:51;11.40;;;3.00;;
72920;SDS011;61064;51.654;5.476;2022-10-22T06:14:17;12.20;;;2.60;;
72920;SDS011;61064;51.654;5.476;2022-10-22T06:16:43;13.20;;;2.70;;
72920;SDS011;61064;51.654;5.476;2022-10-22T06:19:10;17.17;;;3.17;;
72920;SDS011;61064;51.654;5.476;2022-10-22T06:21:37;11.27;;;2.33;;
72920;SDS011;61064;51.654;5.476;2022-10-22T06:24:02;12.43;;;2.65;;
72920;SDS011;61064;51.654;5.476;2022-10-22T06:26:28;13.13;;;2.20;;
72920;SDS011;61064;51.654;5.476;2022-10-22T06:28:54;15.05;;;2.40;;
72920;SDS011;61064;51.654;5.476;2022-10-22T06:31:21;13.38;;;2.33;;
72920;SDS011;61064;51.654;5.476;2022-10-22T06:33:46;10.23;;;2.67;;
72920;SDS011;61064;51.654;5.476;2022-10-22T06:36:13;11.63;;;2.10;;
72920;SDS011;61064;51.654;5.476;2022-10-22T06:38:40;10.67;;;2.37;;
72920;SDS011;61064;51.654;5.476;2022-10-22T06:41:07;12.82;;;2.50;;
72920;SDS011;61064;51.654;5.476;2022-10-22T06:43:34;9.60;;;2.38;;
72920;SDS011;61064;51.654;5.476;2022-10-22T06:46:04;12.40;;;2.57;;
72920;SDS011;61064;51.654;5.476;2022-10-22T06:48:31;11.35;;;2.10;;
72920;SDS011;61064;51.654;5.476;2022-10-22T06:51:01;10.60;;;2.10;;
72920;SDS011;61064;51.654;5.476;2022-10-22T06:53:27;11.40;;;1.88;;
72920;SDS011;61064;51.654;5.476;2022-10-22T06:55:53;8.87;;;1.80;;
72920;SDS011;61064;51.654;5.476;2022-10-22T06:58:19;11.80;;;1.93;;
72920;SDS011;61064;51.654;5.476;2022-10-22T07:00:44;11.17;;;2.40;;
72920;SDS011;61064;51.654;5.476;2022-10-22T07:03:13;11.23;;;1.93;;
72920;SDS011;61064;51.654;5.476;2022-10-22T07:05:40;11.43;;;1.90;;
72920;SDS011;61064;51.654;5.476;2022-10-22T07:08:06;13.63;;;2.80;;
72920;SDS011;61064;51.654;5.476;2022-10-22T07:10:32;10.13;;;1.83;;
72920;SDS011;61064;51.654;5.476;2022-10-22T07:12:57;12.13;;;1.90;;
72920;SDS011;61064;51.654;5.476;2022-10-22T07:15:23;8.60;;;1.70;;
72920;SDS011;61064;51.654;5.476;2022-10-22T07:17:49;11.07;;;1.83;;
72920;SDS011;61064;51.654;5.476;2022-10-22T07:20:15;10.80;;;2.30;;
72920;SDS011;61064;51.654;5.476;2022-10-22T07:22:42;11.18;;;1.80;;
72920;SDS011;61064;51.654;5.476;2022-10-22T07:25:08;10.87;;;2.17;;
72920;SDS011;61064;51.654;5.476;2022-10-22T07:27:33;10.83;;;1.70;;
72920;SDS011;61064;51.654;5.476;2022-10-22T07:29:59;14.83;;;1.93;;
72920;SDS011;61064;51.654;5.476;2022-10-22T07:32:25;14.05;;;1.80;;
72920;SDS011;61064;51.654;5.476;2022-10-22T07:34:51;10.00;;;1.85;;
72920;SDS011;61064;51.654;5.476;2022-10-22T07:37:16;10.27;;;1.60;;
72920;SDS011;61064;51.654;5.476;2022-10-22T07:39:45;11.93;;;1.80;;
72920;SDS011;61064;51.654;5.476;2022-10-22T07:42:11;9.82;;;1.50;;
72920;SDS011;61064;51.654;5.476;2022-10-22T07:44:36;10.13;;;1.60;;
72920;SDS011;61064;51.654;5.476;2022-10-22T07:47:01;10.80;;;1.67;;
72920;SDS011;61064;51.654;5.476;2022-10-22T07:49:27;9.90;;;2.00;;
72920;SDS011;61064;51.654;5.476;2022-10-22T07:51:52;8.27;;;1.60;;
72920;SDS011;61064;51.654;5.476;2022-10-22T07:54:17;12.13;;;2.13;;
72920;SDS011;61064;51.654;5.476;2022-10-22T07:56:43;9.93;;;1.60;;
72920;SDS011;61064;51.654;5.476;2022-10-22T07:59:09;11.43;;;1.83;;
72920;SDS011;61064;51.654;5.476;2022-10-22T08:01:34;10.07;;;1.43;;
72920;SDS011;61064;51.654;5.476;2022-10-22T08:03:59;9.57;;;1.55;;
72920;SDS011;61064;51.654;5.476;2022-10-22T08:06:25;13.77;;;1.70;;
72920;SDS011;61064;51.654;5.476;2022-10-22T08:08:50;11.13;;;1.47;;
72920;SDS011;61064;51.654;5.476;2022-10-22T08:11:16;12.07;;;1.30;;
72920;SDS011;61064;51.654;5.476;2022-10-22T08:13:41;6.55;;;1.10;;
72920;SDS011;61064;51.654;5.476;2022-10-22T08:16:07;8.20;;;1.70;;
72920;SDS011;61064;51.654;5.476;2022-10-22T08:18:32;9.50;;;1.50;;
72920;SDS011;61064;51.654;5.476;2022-10-22T08:20:57;10.83;;;1.40;;
72920;SDS011;61064;51.654;5.476;2022-10-22T08:23:23;13.07;;;1.97;;
72920;SDS011;61064;51.654;5.476;2022-10-22T08:25:48;10.18;;;1.45;;
72920;SDS011;61064;51.654;5.476;2022-10-22T08:28:14;28.70;;;3.10;;
72920;SDS011;61064;51.654;5.476;2022-10-22T08:30:39;10.53;;;1.47;;
72920;SDS011;61064;51.654;5.476;2022-10-22T08:33:06;10.07;;;1.10;;
72920;SDS011;61064;51.654;5.476;2022-10-22T08:35:32;8.97;;;1.20;;
72920;SDS011;61064;51.654;5.476;2022-10-22T08:37:57;17.90;;;1.93;;
72920;SDS011;61064;51.654;5.476;2022-10-22T08:40:33;13.03;;;1.73;;
72920;SDS011;61064;51.654;5.476;2022-10-22T08:43:08;10.73;;;1.30;;
72920;SDS011;61064;51.654;5.476;2022-10-22T08:48:53;8.77;;;1.20;;
72920;SDS011;61064;51.654;5.476;2022-10-22T08:51:22;9.30;;;1.30;;
72920;SDS011;61064;51.654;5.476;2022-10-22T08:56:36;8.27;;;1.13;;
72920;SDS011;61064;51.654;5.476;2022-10-22T08:59:08;11.60;;;1.65;;
72920;SDS011;61064;51.654;5.476;2022-10-22T09:01:42;13.13;;;1.60;;
72920;SDS011;61064;51.654;5.476;2022-10-22T09:04:23;12.05;;;1.40;;
72920;SDS011;61064;51.654;5.476;2022-10-22T09:06:53;11.35;;;1.33;;
72920;SDS011;61064;51.654;5.476;2022-10-22T09:09:21;12.63;;;1.35;;
72920;SDS011;61064;51.654;5.476;2022-10-22T09:11:51;7.43;;;1.35;;
72920;SDS011;61064;51.654;5.476;2022-10-22T09:14:23;7.90;;;1.40;;
72920;SDS011;61064;51.654;5.476;2022-10-22T09:19:43;9.43;;;1.10;;
72920;SDS011;61064;51.654;5.476;2022-10-22T09:22:54;8.88;;;1.40;;
72920;SDS011;61064;51.654;5.476;2022-10-22T09:25:19;10.10;;;1.60;;
72920;SDS011;61064;51.654;5.476;2022-10-22T09:27:50;9.53;;;1.40;;
72920;SDS011;61064;51.654;5.476;2022-10-22T09:30:19;12.15;;;1.60;;
72920;SDS011;61064;51.654;5.476;2022-10-22T09:32:49;11.95;;;1.45;;
72920;SDS011;61064;51.654;5.476;2022-10-22T09:35:20;76.68;;;7.13;;
72920;SDS011;61064;51.654;5.476;2022-10-22T09:37:50;20.05;;;2.42;;
72920;SDS011;61064;51.654;5.476;2022-10-22T09:40:18;10.97;;;1.57;;
72920;SDS011;61064;51.654;5.476;2022-10-22T09:42:47;11.10;;;1.73;;
72920;SDS011;61064;51.654;5.476;2022-10-22T09:45:20;15.57;;;1.88;;
72920;SDS011;61064;51.654;5.476;2022-10-22T09:47:49;14.15;;;1.85;;
72920;SDS011;61064;51.654;5.476;2022-10-22T09:50:27;8.77;;;1.52;;
72920;SDS011;61064;51.654;5.476;2022-10-22T09:55:44;18.42;;;2.90;;
72920;SDS011;61064;51.654;5.476;2022-10-22T09:58:16;11.50;;;1.60;;
72920;SDS011;61064;51.654;5.476;2022-10-22T10:00:44;11.77;;;2.20;;
72920;SDS011;61064;51.654;5.476;2022-10-22T10:03:14;9.63;;;1.77;;
72920;SDS011;61064;51.654;5.476;2022-10-22T10:05:47;8.23;;;1.60;;
72920;SDS011;61064;51.654;5.476;2022-10-22T10:08:14;10.40;;;1.58;;
72920;SDS011;61064;51.654;5.476;2022-10-22T10:10:47;15.15;;;2.13;;
72920;SDS011;61064;51.654;5.476;2022-10-22T10:13:21;10.88;;;1.58;;
72920;SDS011;61064;51.654;5.476;2022-10-22T10:15:59;11.07;;;1.83;;
72920;SDS011;61064;51.654;5.476;2022-10-22T10:24:04;7.82;;;1.70;;
72920;SDS011;61064;51.654;5.476;2022-10-22T10:26:57;11.45;;;1.88;;
72920;SDS011;61064;51.654;5.476;2022-10-22T10:29:40;10.88;;;1.77;;
72920;SDS011;61064;51.654;5.476;2022-10-22T10:40:20;9.85;;;1.70;;
72920;SDS011;61064;51.654;5.476;2022-10-22T10:48:39;7.57;;;1.30;;
72920;SDS011;61064;51.654;5.476;2022-10-22T10:51:37;12.82;;;1.60;;
72920;SDS011;61064;51.654;5.476;2022-10-22T11:00:01;13.17;;;1.83;;
72920;SDS011;61064;51.654;5.476;2022-10-22T11:05:47;9.95;;;1.98;;
72920;SDS011;61064;51.654;5.476;2022-10-22T11:08:20;13.52;;;1.90;;
72920;SDS011;61064;51.654;5.476;2022-10-22T11:11:11;8.88;;;1.55;;
72920;SDS011;61064;51.654;5.476;2022-10-22T11:16:34;12.43;;;1.70;;
72920;SDS011;61064;51.654;5.476;2022-10-22T11:22:08;13.85;;;2.20;;
72920;SDS011;61064;51.654;5.476;2022-10-22T11:24:55;13.57;;;2.20;;
72920;SDS011;61064;51.654;5.476;2022-10-22T11:30:18;10.77;;;2.75;;
72920;SDS011;61064;51.654;5.476;2022-10-22T11:32:51;12.88;;;2.60;;
72920;SDS011;61064;51.654;5.476;2022-10-22T11:35:23;11.90;;;3.00;;
72920;SDS011;61064;51.654;5.476;2022-10-22T11:37:53;13.13;;;3.08;;
72920;SDS011;61064;51.654;5.476;2022-10-22T11:40:36;12.77;;;2.93;;
72920;SDS011;61064;51.654;5.476;2022-10-22T11:43:10;11.25;;;3.00;;
72920;SDS011;61064;51.654;5.476;2022-10-22T11:45:49;11.85;;;2.80;;
72920;SDS011;61064;51.654;5.476;2022-10-22T11:49:03;11.73;;;2.83;;
72920;SDS011;61064;51.654;5.476;2022-10-22T11:51:38;10.80;;;2.42;;
72920;SDS011;61064;51.654;5.476;2022-10-22T11:59:55;16.90;;;2.53;;
72920;SDS011;61064;51.654;5.476;2022-10-22T12:02:39;15.25;;;2.10;;
72920;SDS011;61064;51.654;5.476;2022-10-22T12:07:52;16.53;;;2.20;;
72920;SDS011;61064;51.654;5.476;2022-10-22T12:10:22;12.48;;;1.70;;
72920;SDS011;61064;51.654;5.476;2022-10-22T12:13:01;11.27;;;1.90;;
72920;SDS011;61064;51.654;5.476;2022-10-22T12:15:35;12.57;;;2.25;;
72920;SDS011;61064;51.654;5.476;2022-10-22T12:18:11;11.85;;;1.80;;
72920;SDS011;61064;51.654;5.476;2022-10-22T12:20:38;10.57;;;1.80;;
72920;SDS011;61064;51.654;5.476;2022-10-22T12:23:04;9.23;;;1.70;;
72920;SDS011;61064;51.654;5.476;2022-10-22T12:25:37;10.73;;;1.65;;
72920;SDS011;61064;51.654;5.476;2022-10-22T12:28:03;13.30;;;2.07;;
72920;SDS011;61064;51.654;5.476;2022-10-22T12:30:30;12.65;;;2.05;;
72920;SDS011;61064;51.654;5.476;2022-10-22T12:32:59;14.80;;;2.20;;
72920;SDS011;61064;51.654;5.476;2022-10-22T12:35:27;13.27;;;2.20;;
72920;SDS011;61064;51.654;5.476;2022-10-22T12:37:55;9.20;;;2.10;;
72920;SDS011;61064;51.654;5.476;2022-10-22T12:40:38;12.68;;;1.80;;
72920;SDS011;61064;51.654;5.476;2022-10-22T12:43:16;11.95;;;2.20;;
72920;SDS011;61064;51.654;5.476;2022-10-22T12:45:48;13.77;;;1.88;;
72920;SDS011;61064;51.654;5.476;2022-10-22T12:50:47;11.13;;;2.25;;
72920;SDS011;61064;51.654;5.476;2022-10-22T12:53:16;11.57;;;2.03;;
72920;SDS011;61064;51.654;5.476;2022-10-22T12:55:47;11.75;;;2.17;;
72920;SDS011;61064;51.654;5.476;2022-10-22T12:58:16;11.13;;;2.55;;
72920;SDS011;61064;51.654;5.476;2022-10-22T13:00:45;12.07;;;2.27;;
72920;SDS011;61064;51.654;5.476;2022-10-22T13:03:18;13.73;;;2.10;;
72920;SDS011;61064;51.654;5.476;2022-10-22T13:05:50;11.82;;;2.20;;
72920;SDS011;61064;51.654;5.476;2022-10-22T13:08:16;9.50;;;1.93;;
72920;SDS011;61064;51.654;5.476;2022-10-22T13:10:50;15.05;;;2.40;;
72920;SDS011;61064;51.654;5.476;2022-10-22T13:13:38;11.90;;;2.10;;
72920;SDS011;61064;51.654;5.476;2022-10-22T13:16:16;11.90;;;1.95;;
72920;SDS011;61064;51.654;5.476;2022-10-22T13:18:44;11.20;;;1.90;;
72920;SDS011;61064;51.654;5.476;2022-10-22T13:21:21;10.68;;;2.03;;
72920;SDS011;61064;51.654;5.476;2022-10-22T13:24:00;12.23;;;1.98;;
72920;SDS011;61064;51.654;5.476;2022-10-22T13:26:50;9.80;;;1.58;;
72920;SDS011;61064;51.654;5.476;2022-10-22T13:29:18;10.85;;;2.00;;
72920;SDS011;61064;51.654;5.476;2022-10-22T13:31:46;9.10;;;1.70;;
72920;SDS011;61064;51.654;5.476;2022-10-22T13:34:18;11.07;;;1.45;;
72920;SDS011;61064;51.654;5.476;2022-10-22T13:36:46;9.52;;;1.35;;
72920;SDS011;61064;51.654;5.476;2022-10-22T13:39:19;7.07;;;1.25;;
72920;SDS011;61064;51.654;5.476;2022-10-22T13:41:46;10.52;;;1.58;;
72920;SDS011;61064;51.654;5.476;2022-10-22T13:44:14;9.83;;;1.40;;
72920;SDS011;61064;51.654;5.476;2022-10-22T13:46:40;7.07;;;1.38;;
72920;SDS011;61064;51.654;5.476;2022-10-22T13:49:09;9.05;;;1.55;;
72920;SDS011;61064;51.654;5.476;2022-10-22T13:51:40;10.55;;;1.58;;
72920;SDS011;61064;51.654;5.476;2022-10-22T13:54:12;11.90;;;1.50;;
72920;SDS011;61064;51.654;5.476;2022-10-22T13:56:40;11.85;;;1.52;;
72920;SDS011;61064;51.654;5.476;2022-10-22T13:59:05;9.57;;;1.23;;
72920;SDS011;61064;51.654;5.476;2022-10-22T14:01:31;9.50;;;1.40;;
72920;SDS011;61064;51.654;5.476;2022-10-22T14:03:57;11.37;;;1.37;;
72920;SDS011;61064;51.654;5.476;2022-10-22T14:06:26;10.30;;;1.40;;
72920;SDS011;61064;51.654;5.476;2022-10-22T14:08:59;9.57;;;1.30;;
72920;SDS011;61064;51.654;5.476;2022-10-22T14:11:26;11.95;;;1.73;;
72920;SDS011;61064;51.654;5.476;2022-10-22T14:13:52;10.77;;;1.70;;
72920;SDS011;61064;51.654;5.476;2022-10-22T14:16:19;12.83;;;1.40;;
72920;SDS011;61064;51.654;5.476;2022-10-22T14:18:47;13.60;;;1.67;;
72920;SDS011;61064;51.654;5.476;2022-10-22T14:21:14;8.75;;;1.38;;
72920;SDS011;61064;51.654;5.476;2022-10-22T14:23:41;10.23;;;1.50;;
72920;SDS011;61064;51.654;5.476;2022-10-22T14:26:11;9.75;;;1.33;;
72920;SDS011;61064;51.654;5.476;2022-10-22T14:28:45;10.33;;;1.20;;
72920;SDS011;61064;51.654;5.476;2022-10-22T14:31:11;11.23;;;1.33;;
72920;SDS011;61064;51.654;5.476;2022-10-22T14:33:36;11.17;;;1.63;;
72920;SDS011;61064;51.654;5.476;2022-10-22T14:36:03;12.55;;;1.88;;
72920;SDS011;61064;51.654;5.476;2022-10-22T14:38:28;9.20;;;1.50;;
72920;SDS011;61064;51.654;5.476;2022-10-22T14:40:54;7.60;;;1.40;;
72920;SDS011;61064;51.654;5.476;2022-10-22T14:43:22;8.20;;;1.33;;
72920;SDS011;61064;51.654;5.476;2022-10-22T14:45:51;9.32;;;1.80;;
72920;SDS011;61064;51.654;5.476;2022-10-22T14:48:16;10.32;;;1.83;;
72920;SDS011;61064;51.654;5.476;2022-10-22T14:50:45;7.17;;;1.50;;
72920;SDS011;61064;51.654;5.476;2022-10-22T14:53:12;9.40;;;1.40;;
72920;SDS011;61064;51.654;5.476;2022-10-22T14:55:39;7.07;;;1.63;;
72920;SDS011;61064;51.654;5.476;2022-10-22T14:58:05;9.10;;;1.83;;
72920;SDS011;61064;51.654;5.476;2022-10-22T15:00:30;10.13;;;1.73;;
72920;SDS011;61064;51.654;5.476;2022-10-22T15:02:58;9.68;;;1.40;;
72920;SDS011;61064;51.654;5.476;2022-10-22T15:05:23;7.40;;;1.20;;
72920;SDS011;61064;51.654;5.476;2022-10-22T15:07:49;9.63;;;1.50;;
72920;SDS011;61064;51.654;5.476;2022-10-22T15:10:14;7.83;;;1.67;;
72920;SDS011;61064;51.654;5.476;2022-10-22T15:12:40;8.43;;;1.60;;
72920;SDS011;61064;51.654;5.476;2022-10-22T15:15:05;9.13;;;1.37;;
72920;SDS011;61064;51.654;5.476;2022-10-22T15:17:31;9.70;;;1.73;;
72920;SDS011;61064;51.654;5.476;2022-10-22T15:19:56;9.33;;;1.47;;
72920;SDS011;61064;51.654;5.476;2022-10-22T15:22:25;11.57;;;1.60;;
72920;SDS011;61064;51.654;5.476;2022-10-22T15:24:50;8.40;;;1.73;;
72920;SDS011;61064;51.654;5.476;2022-10-22T15:27:17;9.75;;;1.70;;
72920;SDS011;61064;51.654;5.476;2022-10-22T15:29:42;8.73;;;1.63;;
72920;SDS011;61064;51.654;5.476;2022-10-22T15:32:08;10.33;;;1.50;;
72920;SDS011;61064;51.654;5.476;2022-10-22T15:34:34;8.50;;;1.30;;
72920;SDS011;61064;51.654;5.476;2022-10-22T15:37:03;8.65;;;1.40;;
72920;SDS011;61064;51.654;5.476;2022-10-22T15:39:31;12.48;;;1.50;;
72920;SDS011;61064;51.654;5.476;2022-10-22T15:41:56;11.33;;;1.80;;
72920;SDS011;61064;51.654;5.476;2022-10-22T15:44:24;9.73;;;1.80;;
72920;SDS011;61064;51.654;5.476;2022-10-22T15:46:51;10.50;;;1.50;;
72920;SDS011;61064;51.654;5.476;2022-10-22T15:49:18;8.23;;;1.50;;
72920;SDS011;61064;51.654;5.476;2022-10-22T15:51:45;9.95;;;1.70;;
72920;SDS011;61064;51.654;5.476;2022-10-22T15:54:14;9.50;;;1.40;;
72920;SDS011;61064;51.654;5.476;2022-10-22T15:56:41;11.50;;;1.60;;
72920;SDS011;61064;51.654;5.476;2022-10-22T15:59:08;9.10;;;1.80;;
72920;SDS011;61064;51.654;5.476;2022-10-22T16:01:35;8.95;;;1.80;;
72920;SDS011;61064;51.654;5.476;2022-10-22T16:04:00;11.60;;;2.00;;
72920;SDS011;61064;51.654;5.476;2022-10-22T16:06:30;8.27;;;1.50;;
72920;SDS011;61064;51.654;5.476;2022-10-22T16:09:08;11.13;;;1.88;;
72920;SDS011;61064;51.654;5.476;2022-10-22T16:11:36;8.80;;;1.90;;
72920;SDS011;61064;51.654;5.476;2022-10-22T16:14:02;9.25;;;2.50;;
72920;SDS011;61064;51.654;5.476;2022-10-22T16:16:29;10.38;;;3.17;;